Terminal Aerodrome Forecast
Issued by NWS King Salmon, AK

Home | Current Version | Previous Version | Text Only | Print | Product List | Glossary On
Versions: 1 2 3 4 5 6 7 8 9 10 11 12 13
000
FTAK31 PANC 301127
TAFAKN
TAF
PAKN 301127Z 3012/0112 08005KT P6SM VCSH FEW030 OVC060
     FM301700 08010G15KT P6SM BKN080
     FM302000 10017G32KT P6SM -SHRA SCT030 BKN050
     FM010300 13012G24KT P6SM BKN050
     FM010700 13008KT P6SM BKN080=

USA.gov is the U.S. government's official web portal to all federal, state and local government web resources and services.